Cayuga, ND (58013)

3:02 PM CDT on July 30, 2014 (GMT -0500)
Gwinner-melroe (KGWR) Elev 1266 ft | 46.22 °N, 97.64 °W | Change Station

Current weather conditions updated 7 minutes ago

Scattered Clouds
Scattered Clouds
79 °F
Feels Like 79 °F
N
0
Wind Variable Wind from North

Today is forecast to be nearly the same temperature as yesterday.

Today
High -- | Low -- °F
--% Chance of Precip.
Yesterday
High -- | Low -- °F
Precip. -- in
6:09 AM 9:02 PM
Waxing Crescent, 13% visible
Pressure 30.13 in
Visibility -9999.0 miles
Clouds Scattered Clouds 5000 ft
Dew Point 54 °F
Humidity 42%
Rainfall 0.00 in
Snow Depth Not available.
UV 7 out of 12
Pollen 7.20 out of 12
Air Quality Not available.
Flu Activity Not available.
METAR KGWR 301955Z AUTO 00000KT SCT050 26/12 A3013 RMK A01 P000

More Conditions Fewer Conditions

Pressure 30.13 in
Visibility -9999.0 miles
Clouds Scattered Clouds 5000 ft
Dew Point 54 °F
Humidity 42%
Rainfall 0.00 in
Snow Depth Not available.
UV 7 out of 12
Pollen 7.20 out of 12
Air Quality Not available.
Flu Activity Not available.
METAR KGWR 301955Z AUTO 00000KT SCT050 26/12 A3013 RMK A01 P000

More Conditions Fewer Conditions

10-Day Weather Forecast

Almanac

Astronomy

Jul. 30, 2014 Rise Set
Actual Time 6:09 AM CDT 9:02 PM CDT
Civil Twilight 5:34 AM CDT 9:36 PM CDT
Nautical Twilight 4:49 AM CDT 10:21 PM CDT
Astronomical Twilight 3:56 AM CDT 11:13 PM CDT
Moon 9:57 AM CDT 10:28 PM CDT
Length of Visible Light 16h 02m
Length of Day
14h 52m
Tomorrow will be 2m 29s shorter.
Waxing Crescent, 13% of the Moon is Illuminated
Today
Waxing Crescent
Aug 3
First Quarter
Aug 10
Full
Aug 17
Last Quarter
Aug 25
New

Today's Extremes

State Highs State Lows

Community

WunderPhotos

Upload Photos

1,739,170 photos uploaded!

WunderBlogs® & News

Nearby

Snow Depth

Station Depth Elevation
No new snow has been reported.

Earthquake Activity

City Distance Mag. Time & Date
No recent earthquake activity has been reported nearby.
Minimum magnitude displayed is 2.5.

Coastal Water Temperatures

Place Temperature
No Stations Reporting

Nearby Weather Stations

Station Location Temp. Heat Index Dew Point Humidity Wind Precip. Elev Updated Type
RAWS MARSHALL CO SD, Lake City, SD 74 °F 77 °F 55 °F 51% North  at  0 mph 0.00 in / hr 2009 ft 1:59 PM CDT MADIS
RAWS SHEYENNE ND, Sheldon, ND 80 °F 80 °F 54 °F 41% WNW  at  4 mph 0.00 in / hr 1069 ft 1:49 PM CDT MADIS

Show More Stations Show Fewer Stations